Tunica, Louisiana
Current Conditions -  °F | °C
As of 10:15 PM on Wednesday 26 Nov 2014 (Local Time) from KHZR Reporting Station
Clear Clear  
Wind Chill: 51°   Ceiling: Unl
Heat Index: 51°   Visibility: 10mi
Dew Point: 44°   Wind: 5mph
Humidity: 76%   Direction: 220°SW
Pressure: 30.26"   Gusts: NA
Location:  30.93°N, 91.56°W
Report Text: KHZR 270415Z AUTO 22004KT 10SM CLR 11/06 A3026 RMK AO2 T01050064
Loading
Personal Weather Stations






























Interactive Weather Map New forecast layout! Learn more

10-Day Weather Forecast

Advertisements
Track Severe Weather on mobile